Time;durP1;ratioP1;P1;durP2;ratioP2;P2;SDS_P1;SDS_P2;PMS_P1;PMS_P2;Temp;Humidity;BMP_temperature;BMP_pressure;BME280_temperature;BME280_humidity;BME280_pressure;Samples;Min_cycle;Max_cycle;Signal;HPM_P1;HPM_P2
2023/03/20 00:42:22;;;;;;;21.15;8.10;;;10.00;84.30;;;;;;7413578;19;20352;-78
2023/03/20 00:44:58;;;;;;;21.48;8.48;;;10.10;84.40;;;;;;7413607;19;20018;-77
2023/03/20 00:47:29;;;;;;;17.45;8.00;;;10.10;84.70;;;;;;7438830;19;20028;-76
2023/03/20 00:49:57;;;;;;;18.60;9.07;;;10.10;84.40;;;;;;7418872;19;20026;-77
2023/03/20 00:52:27;;;;;;;22.23;8.82;;;10.10;84.10;;;;;;7416808;19;20234;-76
2023/03/20 00:54:56;;;;;;;21.95;8.70;;;10.10;83.70;;;;;;7416669;19;20010;-77
2023/03/20 00:57:29;;;;;;;19.70;8.70;;;10.00;84.00;;;;;;7415170;19;20026;-77
2023/03/20 01:00:01;;;;;;;18.27;8.35;;;10.00;84.10;;;;;;7412839;19;20002;-77
2023/03/20 01:02:31;;;;;;;19.38;7.88;;;9.90;84.10;;;;;;7448955;19;20015;-77
2023/03/20 01:05:00;;;;;;;21.52;8.68;;;9.90;84.50;;;;;;7422632;19;20010;-77
2023/03/20 01:07:29;;;;;;;20.17;9.27;;;9.90;84.00;;;;;;7425134;19;20003;-78
2023/03/20 01:09:58;;;;;;;26.38;9.73;;;9.80;84.00;;;;;;7420237;19;20003;-78
2023/03/20 01:12:29;;;;;;;18.17;7.95;;;9.70;84.10;;;;;;7416406;19;20252;-77
2023/03/20 01:14:59;;;;;;;;;;;9.80;84.70;;;;;;7415409;19;20333;-77
2023/03/20 01:17:29;;;;;;;15.68;8.45;;;9.80;84.30;;;;;;7438011;19;19914;-79
2023/03/20 01:19:58;;;;;;;17.13;8.15;;;9.80;84.00;;;;;;7416708;19;20014;-78
2023/03/20 01:22:27;;;;;;;17.60;8.70;;;9.70;83.80;;;;;;7416446;19;20002;-78
2023/03/20 01:24:55;;;;;;;21.45;9.35;;;9.70;84.40;;;;;;7416430;19;20002;-78
2023/03/20 01:27:24;;;;;;;19.90;9.68;;;9.70;84.00;;;;;;7414700;19;20016;-78
2023/03/20 01:30:03;;;;;;;19.05;9.18;;;9.70;84.30;;;;;;7413980;19;20088;-77
2023/03/20 01:32:32;;;;;;;20.20;8.90;;;9.60;84.10;;;;;;7440306;19;20018;-78
2023/03/20 01:35:00;;;;;;;25.80;9.18;;;9.50;84.50;;;;;;7414315;19;20031;-77
2023/03/20 01:37:30;;;;;;;18.77;9.23;;;9.50;84.80;;;;;;7415938;19;19998;-78
2023/03/20 01:39:59;;;;;;;24.38;8.80;;;9.60;85.00;;;;;;7415841;19;20058;-78
2023/03/20 01:42:28;;;;;;;24.75;9.77;;;9.60;84.80;;;;;;7395866;19;20031;-79
2023/03/20 01:44:59;;;;;;;20.63;9.70;;;9.50;85.00;;;;;;7386663;19;20276;-77
2023/03/20 01:47:28;;;;;;;24.65;9.30;;;9.50;84.90;;;;;;7406610;19;20011;-78
2023/03/20 01:50:29;;;;;;;17.98;9.05;;;9.50;85.00;;;;;;7386373;19;20011;-76
2023/03/20 01:53:12;;;;;;;23.58;9.93;;;9.50;84.80;;;;;;7383982;19;20030;-78
2023/03/20 01:55:43;;;;;;;22.13;9.35;;;9.50;84.60;;;;;;7384746;19;20028;-76
2023/03/20 01:58:17;;;;;;;21.27;9.73;;;9.50;85.20;;;;;;7385460;19;20115;-79
2023/03/20 02:00:50;;;;;;;25.92;9.43;;;9.50;85.00;;;;;;7386971;19;20010;-78
2023/03/20 02:03:21;;;;;;;17.27;9.52;;;9.50;84.80;;;;;;7390070;19;20009;-79
2023/03/20 02:05:52;;;;;;;20.00;10.05;;;9.50;85.00;;;;;;7389531;19;20018;-78
2023/03/20 02:08:27;;;;;;;20.63;9.63;;;9.50;84.80;;;;;;7404088;19;20010;-78
2023/03/20 02:10:57;;;;;;;26.63;10.05;;;9.50;85.00;;;;;;7383414;19;20232;-78
2023/03/20 02:13:28;;;;;;;18.38;8.23;;;9.50;85.10;;;;;;7382888;19;20007;-77
2023/03/20 02:16:06;;;;;;;21.50;8.77;;;9.50;84.50;;;;;;7383675;19;20023;-78
2023/03/20 02:18:36;;;;;;;36.55;9.48;;;9.50;83.60;;;;;;7387482;19;20077;-77
2023/03/20 02:21:34;;;;;;;23.73;9.68;;;9.50;84.20;;;;;;7388507;19;20013;-78
2023/03/20 02:24:46;;;;;;;23.17;9.43;;;9.40;84.30;;;;;;7383070;19;20036;-77
2023/03/20 02:27:18;;;;;;;;;;;9.40;84.60;;;;;;7382710;19;20339;-78
2023/03/20 02:30:14;;;;;;;16.13;8.93;;;9.40;84.80;;;;;;7381870;19;19914;-77
2023/03/20 02:33:30;;;;;;;21.67;9.18;;;9.40;84.70;;;;;;7380889;19;20011;-77
2023/03/20 02:36:26;;;;;;;20.88;8.75;;;9.40;84.70;;;;;;7380818;19;20050;-77
2023/03/20 02:39:16;;;;;;;18.63;9.52;;;9.30;85.10;;;;;;7379603;19;20251;-77
2023/03/20 02:41:50;;;;;;;18.73;9.73;;;9.40;85.20;;;;;;7377537;19;20277;-77
2023/03/20 02:44:25;;;;;;;20.30;10.60;;;9.40;85.50;;;;;;7400675;19;20014;-77
2023/03/20 02:47:03;;;;;;;19.27;10.15;;;9.50;85.20;;;;;;7383552;19;20538;-78
2023/03/20 02:49:52;;;;;;;25.42;10.07;;;9.50;84.90;;;;;;7384906;19;19998;-78
2023/03/20 02:52:31;;;;;;;20.20;9.82;;;9.50;84.60;;;;;;7382218;19;20006;-78
2023/03/20 02:55:11;;;;;;;21.90;11.43;;;9.40;84.40;;;;;;7377152;19;20002;-78
2023/03/20 02:57:49;;;;;;;30.27;10.25;;;9.40;84.30;;;;;;7381360;19;20117;-78
2023/03/20 03:00:28;;;;;;;21.38;8.98;;;9.30;84.30;;;;;;7380659;19;20021;-78
2023/03/20 03:03:04;;;;;;;24.60;9.90;;;9.40;84.70;;;;;;7383399;19;20007;-78
2023/03/20 03:05:38;;;;;;;18.95;9.63;;;9.30;84.80;;;;;;7405178;19;20019;-78
2023/03/20 03:08:10;;;;;;;23.85;8.70;;;9.30;84.70;;;;;;7384448;19;20014;-78
2023/03/20 03:10:45;;;;;;;19.60;10.07;;;9.20;84.70;;;;;;7382308;19;20275;-77
2023/03/20 03:13:18;;;;;;;20.75;9.27;;;9.20;84.50;;;;;;7394386;19;20021;-79
2023/03/20 03:15:51;;;;;;;19.10;9.68;;;9.20;84.70;;;;;;7393533;19;20369;-78
2023/03/20 03:18:22;;;;;;;26.38;10.88;;;9.20;84.70;;;;;;7385370;19;20075;-78
2023/03/20 03:20:55;;;;;;;23.20;10.00;;;9.10;85.00;;;;;;7385265;19;20003;-78
2023/03/20 03:23:31;;;;;;;22.02;9.85;;;9.10;85.20;;;;;;7404424;19;20015;-78
2023/03/20 03:26:06;;;;;;;22.98;10.50;;;9.10;85.40;;;;;;7387613;19;20023;-79
2023/03/20 03:28:39;;;;;;;20.48;10.15;;;9.00;85.20;;;;;;7388608;19;20046;-78
2023/03/20 03:31:10;;;;;;;23.17;10.45;;;9.00;85.10;;;;;;7384666;19;20155;-78
2023/03/20 03:33:42;;;;;;;24.38;9.50;;;9.00;85.10;;;;;;7388614;19;20017;-78
2023/03/20 03:36:18;;;;;;;22.80;10.10;;;9.00;85.30;;;;;;7383394;19;20417;-77
2023/03/20 03:38:54;;;;;;;18.60;10.05;;;8.90;85.10;;;;;;7380567;19;20052;-76
2023/03/20 03:41:30;;;;;;;22.52;9.55;;;8.90;85.20;;;;;;7401037;19;20024;-77
2023/03/20 03:44:09;;;;;;;22.58;9.95;;;8.90;85.30;;;;;;7380735;19;20010;-76
2023/03/20 03:46:43;;;;;;;24.13;9.95;;;8.90;85.40;;;;;;7381522;19;20287;-77
2023/03/20 03:49:19;;;;;;;21.02;10.32;;;8.90;85.70;;;;;;7378809;19;20370;-76
2023/03/20 03:51:52;;;;;;;19.17;9.52;;;8.90;85.30;;;;;;7379138;19;20006;-76
2023/03/20 03:54:24;;;;;;;15.90;8.98;;;8.90;85.60;;;;;;7379079;19;20014;-77
2023/03/20 03:56:57;;;;;;;18.77;9.60;;;8.90;85.70;;;;;;7378165;19;20011;-77
2023/03/20 03:59:32;;;;;;;24.20;9.93;;;8.90;85.50;;;;;;7399135;19;20039;-77
2023/03/20 04:02:02;;;;;;;23.38;10.82;;;8.90;85.40;;;;;;7379340;19;20222;-77
2023/03/20 04:04:33;;;;;;;13.85;7.10;;;8.90;85.40;;;;;;7378460;19;20013;-76
2023/03/20 04:07:02;;;;;;;26.30;9.63;;;8.90;85.50;;;;;;7379857;19;20028;-77
2023/03/20 04:09:31;;;;;;;22.45;10.00;;;8.80;85.50;;;;;;7381880;19;20035;-77
2023/03/20 04:12:02;;;;;;;27.13;11.13;;;8.80;85.50;;;;;;7379030;19;20014;-77
2023/03/20 04:14:32;;;;;;;24.35;10.90;;;8.80;85.70;;;;;;7400028;19;20014;-78
2023/03/20 04:17:01;;;;;;;27.40;12.27;;;8.80;85.90;;;;;;7380106;19;20006;-77
2023/03/20 04:19:30;;;;;;;27.27;11.68;;;8.80;85.70;;;;;;7381523;19;20108;-77
2023/03/20 04:21:58;;;;;;;21.42;10.40;;;8.80;85.60;;;;;;7381327;19;20007;-77
2023/03/20 04:24:27;;;;;;;25.38;10.63;;;8.80;85.60;;;;;;7380145;19;20006;-77
2023/03/20 04:26:56;;;;;;;24.75;9.55;;;8.80;86.20;;;;;;7378981;19;20011;-77
2023/03/20 04:29:28;;;;;;;20.13;9.98;;;8.80;86.10;;;;;;7401918;19;19999;-78
2023/03/20 04:31:58;;;;;;;25.45;10.05;;;8.90;86.10;;;;;;7377698;19;20016;-76
2023/03/20 04:34:28;;;;;;;19.50;10.07;;;8.80;86.10;;;;;;7378797;19;19999;-77
2023/03/20 04:36:56;;;;;;;23.45;10.48;;;8.80;86.50;;;;;;7381232;19;20031;-76
2023/03/20 04:39:25;;;;;;;20.33;9.35;;;8.80;86.80;;;;;;7380103;19;20032;-77
2023/03/20 04:41:54;;;;;;;18.42;9.90;;;8.90;86.70;;;;;;7383260;19;20446;-78
2023/03/20 04:44:23;;;;;;;19.55;9.95;;;8.90;86.30;;;;;;7408124;19;20035;-77
2023/03/20 04:46:54;;;;;;;20.05;10.02;;;8.90;86.40;;;;;;7383575;19;20032;-78
2023/03/20 04:49:23;;;;;;;;;;;8.90;86.60;;;;;;7384953;19;20011;-78
2023/03/20 04:51:52;;;;;;;19.98;8.65;;;8.80;86.60;;;;;;7380608;19;19947;-78
2023/03/20 04:54:21;;;;;;;17.27;8.43;;;8.80;86.70;;;;;;7380027;19;20003;-78
2023/03/20 04:56:49;;;;;;;18.90;10.00;;;8.80;86.90;;;;;;7376903;19;20002;-77
2023/03/20 04:59:19;;;;;;;25.10;9.82;;;8.90;87.30;;;;;;7397625;19;20010;-77
2023/03/20 05:01:48;;;;;;;21.70;8.98;;;8.90;87.10;;;;;;7377825;19;20368;-78
2023/03/20 05:04:20;;;;;;;24.13;10.07;;;8.80;86.80;;;;;;7377305;19;20234;-77
2023/03/20 05:06:49;;;;;;;16.65;9.65;;;8.90;87.20;;;;;;7378139;19;20028;-76
2023/03/20 05:09:18;;;;;;;21.73;9.52;;;8.90;87.30;;;;;;7378119;19;20002;-76
2023/03/20 05:11:47;;;;;;;16.13;9.50;;;8.90;87.60;;;;;;7376836;19;20010;-78
2023/03/20 05:14:15;;;;;;;22.45;9.77;;;8.90;87.30;;;;;;7396723;19;20010;-76
2023/03/20 05:16:45;;;;;;;21.88;9.48;;;9.00;87.60;;;;;;7378534;19;20039;-76
2023/03/20 05:19:14;;;;;;;21.75;8.48;;;9.00;87.30;;;;;;7383955;19;20002;-76
2023/03/20 05:21:45;;;;;;;20.40;9.13;;;9.10;87.40;;;;;;7385486;19;20027;-77
2023/03/20 05:24:14;;;;;;;20.40;8.60;;;9.10;87.30;;;;;;7385864;19;20042;-76
2023/03/20 05:26:43;;;;;;;24.65;9.32;;;9.10;87.30;;;;;;7399086;19;20015;-77
2023/03/20 05:29:11;;;;;;;17.48;8.60;;;9.10;87.20;;;;;;7412003;19;20014;-77
2023/03/20 05:31:40;;;;;;;15.32;8.82;;;9.10;87.60;;;;;;7384755;19;20370;-77
2023/03/20 05:34:09;;;;;;;14.98;8.30;;;9.10;87.60;;;;;;7384910;19;20023;-77
2023/03/20 05:36:38;;;;;;;22.08;9.00;;;9.10;87.80;;;;;;7384970;19;20014;-77
2023/03/20 05:39:10;;;;;;;22.88;9.75;;;9.20;87.60;;;;;;7383810;19;20381;-77
2023/03/20 05:41:39;;;;;;;30.80;9.15;;;9.20;87.50;;;;;;7382056;19;20677;-76
2023/03/20 05:44:08;;;;;;;25.52;9.48;;;9.20;87.50;;;;;;7404894;19;20236;-77
2023/03/20 05:46:37;;;;;;;27.55;9.32;;;9.20;87.50;;;;;;7386222;19;20003;-76
2023/03/20 05:49:05;;;;;;;26.00;9.77;;;9.20;88.20;;;;;;7387294;19;20017;-76
2023/03/20 05:51:34;;;;;;;27.15;9.07;;;9.20;88.20;;;;;;7387054;19;20392;-75
2023/03/20 05:54:03;;;;;;;25.23;9.02;;;9.30;88.40;;;;;;7382985;19;20035;-76
2023/03/20 05:56:36;;;;;;;24.50;8.52;;;9.40;88.80;;;;;;7405938;19;20031;-77
2023/03/20 05:59:05;;;;;;;23.30;7.65;;;9.40;88.80;;;;;;7383936;19;20010;-77
2023/03/20 06:01:34;;;;;;;25.45;8.93;;;9.50;88.80;;;;;;7383265;19;20010;-77
2023/03/20 06:04:05;;;;;;;19.70;8.77;;;9.50;88.20;;;;;;7383495;19;20123;-76
2023/03/20 06:06:36;;;;;;;15.25;8.27;;;9.50;87.80;;;;;;7381994;19;20013;-76
2023/03/20 06:09:05;;;;;;;;;;;9.60;88.00;;;;;;7385640;19;20066;-78
2023/03/20 06:11:36;;;;;;;22.63;7.93;;;9.60;88.30;;;;;;7401641;19;19926;-76
2023/03/20 06:14:05;;;;;;;;;;;9.60;88.30;;;;;;7405918;19;20238;-77
2023/03/20 06:16:33;;;;;;;20.17;8.20;;;9.60;88.60;;;;;;7382862;19;20118;-77
2023/03/20 06:19:02;;;;;;;15.43;8.50;;;9.70;89.10;;;;;;7383260;19;20048;-77
2023/03/20 06:21:31;;;;;;;18.33;9.25;;;9.70;89.20;;;;;;7381364;19;20010;-77
2023/03/20 06:24:00;;;;;;;22.08;9.40;;;9.80;89.10;;;;;;7380933;19;20492;-76
2023/03/20 06:26:28;;;;;;;23.10;9.18;;;9.80;88.90;;;;;;7401667;19;19999;-76
2023/03/20 06:29:00;;;;;;;24.50;8.85;;;9.80;88.80;;;;;;7381843;19;20224;-77
2023/03/20 06:31:29;;;;;;;18.80;9.27;;;9.90;88.80;;;;;;7380810;19;20017;-77
2023/03/20 06:33:58;;;;;;;18.45;9.00;;;9.90;88.70;;;;;;7381273;19;20002;-77
2023/03/20 06:36:27;;;;;;;19.08;8.50;;;9.90;88.50;;;;;;7382645;19;20007;-76
2023/03/20 06:38:58;;;;;;;21.58;8.25;;;10.00;88.60;;;;;;7384283;19;20061;-76
2023/03/20 06:41:27;;;;;;;21.05;8.85;;;10.00;88.20;;;;;;7406967;19;20039;-76
2023/03/20 06:43:55;;;;;;;20.73;7.88;;;10.10;88.20;;;;;;7385343;19;20010;-77
2023/03/20 06:46:27;;;;;;;23.35;8.60;;;10.10;88.30;;;;;;7381930;19;20232;-77
2023/03/20 06:48:55;;;;;;;;;;;10.10;88.50;;;;;;7382300;19;20003;-78
2023/03/20 06:51:24;;;;;;;23.08;9.23;;;10.20;88.50;;;;;;7381754;19;19907;-78
2023/03/20 06:53:53;;;;;;;20.88;8.73;;;10.20;88.60;;;;;;7383593;19;20032;-78
2023/03/20 06:56:22;;;;;;;26.25;9.05;;;10.20;88.80;;;;;;7404975;19;20032;-78
2023/03/20 06:58:50;;;;;;;18.85;8.38;;;10.30;89.40;;;;;;7385189;19;20011;-78
2023/03/20 07:01:19;;;;;;;24.52;8.88;;;10.30;89.80;;;;;;7386265;19;20283;-77
2023/03/20 07:03:51;;;;;;;29.48;8.70;;;10.30;89.70;;;;;;7383571;19;20251;-77
2023/03/20 07:06:20;;;;;;;;;;;10.40;90.00;;;;;;7382038;19;20010;-77
2023/03/20 07:08:50;;;;;;;19.45;8.32;;;10.40;89.80;;;;;;7380601;19;19911;-77
2023/03/20 07:11:25;;;;;;;23.55;10.25;;;10.50;89.70;;;;;;7402460;19;20005;-78
2023/03/20 07:13:54;;;;;;;21.55;9.13;;;10.60;89.80;;;;;;7388274;19;20010;-78
2023/03/20 07:16:23;;;;;;;22.98;8.73;;;10.60;90.00;;;;;;7389129;19;20566;-78
2023/03/20 07:18:55;;;;;;;21.98;8.13;;;10.70;90.10;;;;;;7386612;19;20011;-77
2023/03/20 07:21:25;;;;;;;;;;;10.70;90.00;;;;;;7383474;19;20003;-77
2023/03/20 07:23:54;;;;;;;86.20;26.42;;;10.80;90.10;;;;;;7383502;19;19914;-77
2023/03/20 07:26:22;;;;;;;104.57;34.72;;;10.80;90.10;;;;;;7402879;19;20361;-77
2023/03/20 07:28:51;;;;;;;59.85;19.63;;;10.90;90.10;;;;;;7380949;19;20003;-77
2023/03/20 07:31:25;;;;;;;37.88;14.50;;;10.90;90.20;;;;;;7382539;19;20394;-77
2023/03/20 07:33:59;;;;;;;26.48;10.80;;;11.00;90.30;;;;;;7384115;19;20047;-77
2023/03/20 07:36:28;;;;;;;23.38;9.95;;;11.00;90.30;;;;;;7383432;19;20010;-77
2023/03/20 07:38:57;;;;;;;17.23;6.00;;;11.10;90.50;;;;;;7396589;19;20018;-78
2023/03/20 07:41:26;;;;;;;22.48;6.75;;;11.10;90.30;;;;;;7413584;19;20014;-78
2023/03/20 07:43:54;;;;;;;14.80;5.72;;;11.20;90.20;;;;;;7388361;19;20010;-78
2023/03/20 07:46:24;;;;;;;14.98;5.28;;;11.30;90.20;;;;;;7382642;19;20030;-77
2023/03/20 07:48:53;;;;;;;16.73;5.78;;;11.30;90.10;;;;;;7388660;19;20094;-78
2023/03/20 07:51:24;;;;;;;8.32;4.43;;;11.40;90.20;;;;;;7391530;19;20014;-78
2023/03/20 07:53:53;;;;;;;;;;;11.40;89.70;;;;;;7387430;19;20031;-77
2023/03/20 07:56:21;;;;;;;11.65;3.50;;;11.50;88.50;;;;;;7402093;19;19915;-77
2023/03/20 07:58:53;;;;;;;11.45;3.50;;;11.50;87.20;;;;;;7384758;19;20003;-77
2023/03/20 08:01:22;;;;;;;8.55;3.88;;;11.50;87.50;;;;;;7385791;19;20018;-77
2023/03/20 08:03:51;;;;;;;12.70;3.85;;;11.50;87.30;;;;;;7387436;19;20006;-78
2023/03/20 08:06:20;;;;;;;7.90;3.50;;;11.70;87.70;;;;;;7388839;19;20006;-78
2023/03/20 08:09:00;;;;;;;10.40;3.50;;;11.70;86.30;;;;;;7388794;19;20007;-81
